createdAt,value
2023-03-10T00:02:30.991Z,20.46
2023-03-10T00:03:31.046Z,20.47
2023-03-10T00:04:31.138Z,20.46
2023-03-10T00:05:31.178Z,20.47
2023-03-10T00:06:31.175Z,20.47
2023-03-10T00:07:31.273Z,20.46
2023-03-10T00:08:31.241Z,20.45
2023-03-10T00:09:31.346Z,20.45
2023-03-10T00:10:31.325Z,20.46
2023-03-10T00:11:31.378Z,20.47
2023-03-10T00:12:31.424Z,20.46
2023-03-10T00:13:31.465Z,20.46
2023-03-10T00:14:31.504Z,20.44
2023-03-10T00:15:31.716Z,20.44
2023-03-10T00:16:31.573Z,20.44
2023-03-10T00:17:31.615Z,20.44
2023-03-10T00:18:31.655Z,20.44
2023-03-10T00:19:31.689Z,20.44
2023-03-10T00:20:31.816Z,20.45
2023-03-10T00:21:31.733Z,20.45
2023-03-10T00:22:31.777Z,20.46
2023-03-10T00:23:31.815Z,20.46
2023-03-10T00:24:31.872Z,20.45
2023-03-10T00:25:31.923Z,20.44
2023-03-10T00:26:32.073Z,20.45
2023-03-10T00:27:31.986Z,20.46
2023-03-10T00:28:32.045Z,20.45
2023-03-10T00:29:32.114Z,20.46
2023-03-10T00:31:32.276Z,20.46
2023-03-10T00:32:32.326Z,20.47
2023-03-10T00:33:32.364Z,20.48
2023-03-10T01:00:33.440Z,20.45
2023-03-10T03:25:40.994Z,20.46
2023-03-10T03:26:40.950Z,20.45
2023-03-10T03:27:40.990Z,20.46
2023-03-10T03:28:41.085Z,20.45
2023-03-10T03:29:41.093Z,20.45
2023-03-10T03:30:41.119Z,20.45
2023-03-10T03:31:41.353Z,20.45
2023-03-10T03:32:41.391Z,20.47
2023-03-10T03:50:42.105Z,20.47
2023-03-10T03:51:42.161Z,20.46
2023-03-10T03:52:42.208Z,20.47
2023-03-10T03:53:42.241Z,20.46
2023-03-10T03:54:42.284Z,20.46
2023-03-10T06:13:50.984Z,20.52
2023-03-10T06:14:51.043Z,20.53
2023-03-10T06:15:51.101Z,20.52
2023-03-10T06:16:51.293Z,20.53
2023-03-10T06:17:51.249Z,20.54
2023-03-10T06:18:51.343Z,20.53
2023-03-10T06:19:51.379Z,20.53
2023-03-10T06:20:52.267Z,20.55
2023-03-10T06:21:51.519Z,20.55
2023-03-10T06:22:51.579Z,20.54
2023-03-10T06:23:51.656Z,20.45
2023-03-10T06:24:51.725Z,20.43
2023-03-10T06:25:51.792Z,20.41
2023-03-10T06:26:51.874Z,20.35
2023-03-10T06:27:51.908Z,20.29
2023-03-10T06:28:51.917Z,20.25
2023-03-10T06:29:51.930Z,20.28
2023-03-10T06:30:51.949Z,20.30
2023-03-10T06:31:51.998Z,20.32
2023-03-10T06:32:52.048Z,20.35
2023-03-10T06:33:52.046Z,20.39
2023-03-10T06:34:52.764Z,20.41
2023-03-10T06:35:52.251Z,20.44
2023-03-10T06:36:52.165Z,20.45
2023-03-10T06:37:52.759Z,20.47
2023-03-10T06:38:53.182Z,20.48
2023-03-10T06:39:52.161Z,20.49
2023-03-10T06:40:52.157Z,20.50
2023-03-10T06:41:52.156Z,20.49
2023-03-10T06:42:52.150Z,20.49
2023-03-10T06:43:52.759Z,20.48
2023-03-10T06:44:52.279Z,20.50
2023-03-10T06:45:52.313Z,20.50
2023-03-10T06:46:52.362Z,20.50
2023-03-10T06:47:52.437Z,20.49
2023-03-10T06:48:52.514Z,20.49
2023-03-10T06:49:52.575Z,20.50
2023-03-10T06:50:52.634Z,20.50
2023-03-10T06:51:52.742Z,20.50
2023-03-10T06:54:52.917Z,20.51
2023-03-10T06:55:52.972Z,20.51
2023-03-10T06:56:53.054Z,20.51
2023-03-10T06:57:53.122Z,20.50
2023-03-10T06:58:53.174Z,20.50
2023-03-10T06:59:53.250Z,20.50
2023-03-10T07:00:53.417Z,20.51
2023-03-10T07:01:53.389Z,20.52
2023-03-10T07:02:53.460Z,20.52
2023-03-10T07:03:53.529Z,20.52
2023-03-10T07:04:53.731Z,20.53
2023-03-10T07:05:53.654Z,20.52
2023-03-10T07:06:53.710Z,20.53
2023-03-10T07:07:53.776Z,20.53
2023-03-10T07:08:53.838Z,20.52
2023-03-10T07:09:53.901Z,20.52
2023-03-10T07:10:53.960Z,20.51
2023-03-10T07:11:54.032Z,20.52
2023-03-10T07:12:54.100Z,20.53
2023-03-10T09:56:00.952Z,20.76
2023-03-10T09:57:01.001Z,20.76
2023-03-10T09:58:03.677Z,20.77
2023-03-10T09:59:01.033Z,20.77
2023-03-10T10:00:01.212Z,20.78
2023-03-10T10:01:01.062Z,20.77
2023-03-10T10:02:01.027Z,20.78
2023-03-10T10:03:01.132Z,20.79
2023-03-10T10:04:01.210Z,20.78
2023-03-10T10:05:03.789Z,20.79
2023-03-10T10:06:01.005Z,20.78
2023-03-10T10:07:01.016Z,20.78
2023-03-10T10:08:01.000Z,20.78
2023-03-10T10:09:04.906Z,20.79
2023-03-10T10:10:00.991Z,20.79
2023-03-10T10:11:00.981Z,20.79
2023-03-10T10:12:00.980Z,20.79
2023-03-10T10:13:01.039Z,20.79
2023-03-10T10:14:01.783Z,20.79
2023-03-10T10:15:01.167Z,20.77
2023-03-10T10:16:18.248Z,20.73
2023-03-10T10:17:02.086Z,20.71
2023-03-10T10:18:12.139Z,20.73
2023-03-10T10:20:00.985Z,20.75
2023-03-10T10:21:01.023Z,20.80
2023-03-10T10:22:01.079Z,20.84
2023-03-10T10:23:00.991Z,20.86
2023-03-10T10:24:00.999Z,20.87
2023-03-10T10:25:00.975Z,20.89
2023-03-10T10:26:02.624Z,20.89
2023-03-10T10:27:00.999Z,20.89
2023-03-10T10:28:00.968Z,20.89
2023-03-10T10:29:01.860Z,20.88
2023-03-10T10:30:01.243Z,20.89
2023-03-10T10:31:01.047Z,20.87
2023-03-10T10:32:01.042Z,20.87
2023-03-10T10:33:01.329Z,20.87
2023-03-10T10:34:01.113Z,20.88
2023-03-10T10:35:01.133Z,20.86
2023-03-10T10:36:01.186Z,20.86
2023-03-10T10:37:01.192Z,20.85
2023-03-10T10:38:01.221Z,20.84
2023-03-10T10:39:01.274Z,20.84
2023-03-10T10:40:01.289Z,20.84
2023-03-10T10:41:01.312Z,20.84
2023-03-10T10:42:01.394Z,20.84
2023-03-10T10:43:01.501Z,20.84
2023-03-10T10:44:01.815Z,20.84
2023-03-10T10:45:01.444Z,20.84
2023-03-10T10:46:01.602Z,20.85
2023-03-10T10:47:01.515Z,20.84
2023-03-10T10:48:01.565Z,20.85
2023-03-10T10:49:01.695Z,20.85
2023-03-10T10:50:01.616Z,20.85
2023-03-10T10:52:01.915Z,20.85
2023-03-10T10:53:01.827Z,20.86
2023-03-10T10:54:01.818Z,20.86
2023-03-10T10:55:01.799Z,20.85
2023-03-10T10:56:01.832Z,20.85
2023-03-10T10:57:01.964Z,20.86
2023-03-10T10:58:02.034Z,20.88
2023-03-10T10:59:01.941Z,20.88
2023-03-10T11:00:01.952Z,20.90
2023-03-10T11:01:02.083Z,20.90
2023-03-10T11:02:02.197Z,20.91
2023-03-10T11:03:02.049Z,20.90
2023-03-10T11:04:02.071Z,20.91
2023-03-10T11:05:02.098Z,20.91
2023-03-10T11:06:02.112Z,20.91
2023-03-10T11:07:02.134Z,20.91
2023-03-10T11:08:02.161Z,20.92
2023-03-10T11:09:02.213Z,20.92
2023-03-10T11:10:03.238Z,20.92
2023-03-10T11:11:02.311Z,20.88
2023-03-10T11:12:02.420Z,20.87
2023-03-10T11:13:02.420Z,20.87
2023-03-10T11:14:02.478Z,20.86
2023-03-10T11:15:02.513Z,20.87
2023-03-10T11:16:02.558Z,20.86
2023-03-10T11:17:02.557Z,20.88
2023-03-10T11:18:02.612Z,20.89
2023-03-10T11:19:02.673Z,20.90
2023-03-10T11:20:02.722Z,20.92
2023-03-10T11:21:02.829Z,20.93
2023-03-10T11:22:02.797Z,20.94
2023-03-10T11:23:02.898Z,20.94
2023-03-10T11:24:02.880Z,20.95
2023-03-10T11:50:03.572Z,20.85
2023-03-10T11:54:03.685Z,20.84
2023-03-10T11:55:03.709Z,20.84
2023-03-10T11:56:03.742Z,20.84
2023-03-10T11:57:03.773Z,20.83
2023-03-10T11:59:03.843Z,20.83
2023-03-10T12:00:03.877Z,20.83
2023-03-10T12:01:03.936Z,20.83
2023-03-10T12:02:03.934Z,20.83
2023-03-10T12:03:04.019Z,20.83
2023-03-10T12:04:03.993Z,20.84
2023-03-10T12:05:04.113Z,20.83
2023-03-10T12:06:04.144Z,20.83
2023-03-10T12:07:04.107Z,20.83
2023-03-10T12:08:04.157Z,20.84
2023-03-10T12:09:04.173Z,20.82
2023-03-10T12:10:04.230Z,20.83
2023-03-10T12:11:04.259Z,20.83
2023-03-10T12:12:04.305Z,20.83
2023-03-10T12:13:04.345Z,20.83
2023-03-10T12:14:04.374Z,20.83
2023-03-10T12:15:04.467Z,20.84
2023-03-10T12:16:04.552Z,20.85
2023-03-10T12:17:04.482Z,20.85
2023-03-10T12:18:04.528Z,20.85
2023-03-10T12:19:04.542Z,20.85
2023-03-10T12:20:04.593Z,20.85
2023-03-10T12:21:04.627Z,20.84
2023-03-10T12:22:04.661Z,20.85
2023-03-10T12:23:04.694Z,20.85
2023-03-10T12:24:04.727Z,20.85
2023-03-10T12:25:04.760Z,20.84
2023-03-10T12:27:04.864Z,20.84
2023-03-10T12:28:04.868Z,20.84
2023-03-10T12:29:04.909Z,20.83
2023-03-10T12:30:04.957Z,20.83
2023-03-10T12:31:05.032Z,20.83
2023-03-10T12:32:05.043Z,20.83
2023-03-10T12:33:05.089Z,20.83
2023-03-10T12:34:05.126Z,20.83
2023-03-10T12:35:05.170Z,20.83
2023-03-10T12:36:05.279Z,20.83
2023-03-10T12:38:05.188Z,20.83
2023-03-10T12:39:05.186Z,20.83
2023-03-10T12:40:05.182Z,20.83
2023-03-10T12:41:05.187Z,20.84
2023-03-10T12:42:05.165Z,20.84
2023-03-10T12:43:05.156Z,20.83
2023-03-10T12:44:05.212Z,20.83
2023-03-10T12:45:05.142Z,20.83
2023-03-10T12:46:05.135Z,20.83
2023-03-10T12:47:05.252Z,20.83
2023-03-10T12:48:05.138Z,20.82
2023-03-10T12:49:05.182Z,20.83
2023-03-10T12:50:05.264Z,20.83
2023-03-10T12:51:05.255Z,20.82
2023-03-10T12:52:05.303Z,20.83
2023-03-10T12:53:05.755Z,20.83
2023-03-10T12:54:05.390Z,20.83
2023-03-10T12:55:05.436Z,20.83
2023-03-10T12:56:05.479Z,20.82
2023-03-10T12:57:05.534Z,20.81
2023-03-10T12:58:05.583Z,20.80
2023-03-10T12:59:05.627Z,20.81
2023-03-10T13:00:05.719Z,20.82
2023-03-10T13:01:05.791Z,20.82
2023-03-10T13:02:05.837Z,20.82
2023-03-10T13:03:05.797Z,20.81
2023-03-10T13:04:05.909Z,20.80
2023-03-10T13:05:05.884Z,20.80
2023-03-10T13:06:05.949Z,20.79
2023-03-10T13:07:05.970Z,20.77
2023-03-10T13:08:06.014Z,20.77
2023-03-10T13:09:06.082Z,20.78
2023-03-10T13:10:06.104Z,20.78
2023-03-10T13:11:06.187Z,20.78
2023-03-10T13:12:06.186Z,20.78
2023-03-10T13:13:06.241Z,20.78
2023-03-10T13:14:06.287Z,20.78
2023-03-10T13:15:06.305Z,20.78
2023-03-10T13:16:06.388Z,20.77
2023-03-10T13:17:06.399Z,20.77
2023-03-10T13:18:06.420Z,20.78
2023-03-10T13:19:06.472Z,20.78
2023-03-10T13:20:06.505Z,20.77
2023-03-10T13:21:06.536Z,20.77
2023-03-10T13:22:06.583Z,20.76
2023-03-10T13:23:06.623Z,20.76
2023-03-10T13:24:06.665Z,20.75
2023-03-10T13:25:06.698Z,20.74
2023-03-10T13:26:06.746Z,20.75
2023-03-10T13:27:06.791Z,20.74
2023-03-10T13:28:06.899Z,20.74
2023-03-10T13:29:06.858Z,20.74
2023-03-10T13:30:06.897Z,20.75
2023-03-10T13:31:06.946Z,20.74
2023-03-10T13:32:07.039Z,20.74
2023-03-10T13:33:07.032Z,20.74
2023-03-10T13:34:07.072Z,20.73
2023-03-10T13:35:07.118Z,20.73
2023-03-10T13:36:07.188Z,20.73
2023-03-10T13:37:07.213Z,20.71
2023-03-10T13:38:07.233Z,20.71
2023-03-10T13:39:07.276Z,20.71
2023-03-10T13:40:07.414Z,20.72
2023-03-10T13:41:07.382Z,20.72
2023-03-10T13:42:07.417Z,20.71
2023-03-10T13:43:07.462Z,20.72
2023-03-10T13:44:07.510Z,20.71
2023-03-10T13:45:07.543Z,20.72
2023-03-10T13:46:07.624Z,20.73
2023-03-10T13:47:07.637Z,20.72
2023-03-10T13:48:07.691Z,20.72
2023-03-10T13:49:07.722Z,20.73
2023-03-10T13:50:07.768Z,20.75
2023-03-10T13:51:07.818Z,20.75
2023-03-10T13:52:07.871Z,20.76
2023-03-10T13:54:08.013Z,20.76
2023-03-10T13:55:08.008Z,20.76
2023-03-10T13:56:08.063Z,20.76
2023-03-10T13:57:08.109Z,20.75
2023-03-10T13:58:08.156Z,20.75
2023-03-10T13:59:08.202Z,20.75
2023-03-10T14:00:08.257Z,20.75
2023-03-10T14:01:08.373Z,20.74
2023-03-10T14:02:08.347Z,20.74
2023-03-10T14:03:08.417Z,20.74
2023-03-10T14:04:08.613Z,20.74
2023-03-10T14:05:08.502Z,20.74
2023-03-10T14:06:08.547Z,20.75
2023-03-10T14:07:08.604Z,20.75
2023-03-10T14:08:08.649Z,20.74
2023-03-10T14:09:08.704Z,20.71
2023-03-10T14:10:08.773Z,20.71
2023-03-10T14:11:08.820Z,20.71
2023-03-10T14:12:08.874Z,20.70
2023-03-10T14:13:08.924Z,20.70
2023-03-10T14:14:08.968Z,20.72
2023-03-10T14:15:09.037Z,20.72
2023-03-10T14:16:09.087Z,20.72
2023-03-10T14:17:09.276Z,20.71
2023-03-10T14:18:09.192Z,20.71
2023-03-10T14:19:09.238Z,20.70
2023-03-10T14:21:09.346Z,20.70
2023-03-10T14:22:09.409Z,20.71
2023-03-10T14:23:09.454Z,20.70
2023-03-10T14:24:09.501Z,20.72
2023-03-10T14:25:09.578Z,20.70
2023-03-10T14:26:09.614Z,20.70
2023-03-10T14:27:09.674Z,20.70
2023-03-10T14:28:09.722Z,20.71
2023-03-10T14:29:09.776Z,20.71
2023-03-10T14:30:09.832Z,20.71
2023-03-10T14:31:09.905Z,20.72
2023-03-10T14:32:10.082Z,20.71
2023-03-10T15:40:12.615Z,20.66
2023-03-10T16:01:12.708Z,20.67
2023-03-10T16:02:12.852Z,20.67
2023-03-10T16:03:12.808Z,20.66
2023-03-10T16:06:12.995Z,20.65
2023-03-10T17:41:18.927Z,20.60
2023-03-10T17:42:18.984Z,20.61
2023-03-10T17:43:33.326Z,20.62
2023-03-10T17:44:20.042Z,20.61
2023-03-10T17:45:19.084Z,20.61
2023-03-10T17:46:19.057Z,20.61
2023-03-10T17:47:19.047Z,20.62
2023-03-10T17:48:19.001Z,20.62
2023-03-10T17:49:19.004Z,20.63
2023-03-10T17:50:19.995Z,20.63
2023-03-10T17:51:18.986Z,20.64
2023-03-10T17:52:18.987Z,20.64
2023-03-10T17:53:18.980Z,20.64
2023-03-10T17:54:18.974Z,20.63
2023-03-10T17:55:18.973Z,20.63
2023-03-10T17:56:18.987Z,20.63
2023-03-10T17:57:18.987Z,20.64
2023-03-10T17:58:19.042Z,20.63
2023-03-10T17:59:19.124Z,20.64
2023-03-10T18:00:19.180Z,20.64
2023-03-10T18:01:19.253Z,20.64
2023-03-10T18:02:19.431Z,20.63
2023-03-10T18:03:19.504Z,20.63
2023-03-10T18:04:19.439Z,20.64
2023-03-10T18:05:20.203Z,20.64
2023-03-10T18:06:19.592Z,20.64
2023-03-10T18:07:20.206Z,20.63
2023-03-10T18:08:20.700Z,20.63
2023-03-10T18:09:19.788Z,20.62
2023-03-10T18:10:19.861Z,20.62
2023-03-10T18:11:19.932Z,20.62
2023-03-10T18:12:19.992Z,20.61
2023-03-10T18:13:20.077Z,20.62
2023-03-10T18:14:20.147Z,20.63
2023-03-10T18:15:20.216Z,20.62
2023-03-10T18:16:20.317Z,20.62
2023-03-10T18:17:20.361Z,20.62
2023-03-10T18:18:20.432Z,20.62
2023-03-10T18:19:20.510Z,20.62
2023-03-10T18:20:20.571Z,20.62
2023-03-10T18:21:20.647Z,20.62
2023-03-10T18:22:20.708Z,20.62
2023-03-10T18:23:20.759Z,20.64
2023-03-10T18:24:20.834Z,20.63
2023-03-10T18:25:20.913Z,20.63
2023-03-10T18:26:20.974Z,20.63
2023-03-10T18:27:21.026Z,20.64
2023-03-10T18:28:21.105Z,20.64
2023-03-10T18:29:21.170Z,20.64
2023-03-10T18:30:21.243Z,20.64
2023-03-10T18:31:21.398Z,20.64
2023-03-10T18:32:21.461Z,20.64
2023-03-10T18:33:21.445Z,20.65
2023-03-10T18:34:21.536Z,20.64
2023-03-10T18:35:21.573Z,20.63
2023-03-10T18:36:21.665Z,20.63
2023-03-10T18:37:21.711Z,20.63
2023-03-10T18:38:21.784Z,20.64
2023-03-10T18:39:21.850Z,20.63
2023-03-10T18:40:21.929Z,20.64
2023-03-10T18:41:21.985Z,20.64
2023-03-10T18:42:22.063Z,20.64
2023-03-10T18:43:22.132Z,20.64
2023-03-10T18:44:22.194Z,20.64
2023-03-10T18:45:22.267Z,20.64
2023-03-10T18:46:22.412Z,20.63
2023-03-10T18:47:22.423Z,20.63
2023-03-10T18:48:22.486Z,20.63
2023-03-10T18:49:22.539Z,20.63
2023-03-10T18:50:22.608Z,20.63
2023-03-10T18:51:23.188Z,20.64
2023-03-10T18:52:22.739Z,20.63
2023-03-10T20:20:28.905Z,20.59
2023-03-10T20:28:28.975Z,20.61
2023-03-10T20:29:29.044Z,20.61
2023-03-10T20:30:29.115Z,20.60
2023-03-10T20:31:29.183Z,20.60
2023-03-10T20:32:29.378Z,20.59
2023-03-10T20:33:29.316Z,20.59
2023-03-10T20:34:29.383Z,20.59
2023-03-10T20:35:29.492Z,20.60
2023-03-10T20:36:29.532Z,20.60
2023-03-10T20:37:29.609Z,20.60
2023-03-10T20:38:29.733Z,20.60
2023-03-10T20:39:29.747Z,20.60
2023-03-10T20:40:29.815Z,20.60
2023-03-10T20:41:29.895Z,20.61
2023-03-10T20:42:29.973Z,20.61
2023-03-10T20:43:30.050Z,20.60
2023-03-10T20:44:30.127Z,20.60
2023-03-10T20:45:30.186Z,20.59
2023-03-10T20:46:30.264Z,20.59
2023-03-10T20:47:30.334Z,20.58
2023-03-10T20:48:30.435Z,20.58
2023-03-10T20:49:30.489Z,20.58
2023-03-10T20:50:30.569Z,20.58
2023-03-10T20:51:30.717Z,20.59
2023-03-10T20:52:30.717Z,20.59
2023-03-10T20:53:30.806Z,20.57
2023-03-10T20:54:30.863Z,20.58
2023-03-10T20:55:30.989Z,20.58
2023-03-10T20:56:31.565Z,20.58
2023-03-10T20:57:31.111Z,20.59
2023-03-10T20:58:31.183Z,20.59
2023-03-10T20:59:31.254Z,20.58
2023-03-10T21:00:31.334Z,20.58
2023-03-10T21:01:31.524Z,20.59
2023-03-10T21:02:31.495Z,20.60
2023-03-10T21:03:31.578Z,20.58
2023-03-10T21:04:31.706Z,20.58
2023-03-10T21:05:31.762Z,20.58
2023-03-10T21:06:31.800Z,20.58
2023-03-10T21:07:31.872Z,20.59
2023-03-10T21:08:31.931Z,20.59
2023-03-10T21:09:32.029Z,20.60
2023-03-10T21:10:32.103Z,20.60
2023-03-10T21:11:32.166Z,20.61
2023-03-10T21:12:32.233Z,20.60
2023-03-10T21:13:32.311Z,20.61
2023-03-10T21:14:32.384Z,20.62
2023-03-10T21:15:32.450Z,20.61
2023-03-10T21:16:32.557Z,20.62
2023-03-10T21:17:32.609Z,20.62
2023-03-10T21:18:32.672Z,20.62
2023-03-10T21:19:32.763Z,20.62
2023-03-10T21:20:32.817Z,20.61
2023-03-10T21:21:32.882Z,20.60
2023-03-10T21:22:32.960Z,20.59
2023-03-10T21:23:33.024Z,20.59
2023-03-10T21:24:33.090Z,20.58
2023-03-10T21:25:33.151Z,20.58
2023-03-10T21:26:33.245Z,20.58
2023-03-10T21:27:33.290Z,20.59
2023-03-10T21:28:33.374Z,20.60
2023-03-10T21:29:33.497Z,20.60
2023-03-10T21:30:33.544Z,20.60
2023-03-10T21:31:33.582Z,20.58
2023-03-10T21:32:33.716Z,20.58
2023-03-10T21:33:33.738Z,20.57
2023-03-10T21:34:33.837Z,20.57
2023-03-10T21:35:33.929Z,20.57
2023-03-10T21:36:34.003Z,20.56
2023-03-10T21:37:35.767Z,20.57
2023-03-10T21:38:34.023Z,20.57
2023-03-10T21:39:34.014Z,20.58
2023-03-10T21:40:34.087Z,20.58
2023-03-10T21:41:34.092Z,20.59
2023-03-10T21:42:34.028Z,20.59
2023-03-10T21:43:34.115Z,20.60
2023-03-10T21:44:34.043Z,20.61
2023-03-10T21:45:34.049Z,20.61
2023-03-10T21:46:34.074Z,20.61
2023-03-10T21:47:34.057Z,20.60
2023-03-10T21:48:34.063Z,20.61
2023-03-10T21:49:34.196Z,20.61
2023-03-10T21:50:34.086Z,20.60
2023-03-10T21:51:34.070Z,20.60
2023-03-10T21:52:34.075Z,20.60
2023-03-10T21:53:34.113Z,20.59
2023-03-10T21:54:34.112Z,20.59
2023-03-10T21:55:34.076Z,20.58
2023-03-10T21:56:34.089Z,20.57
2023-03-10T21:57:34.089Z,20.58
2023-03-10T21:58:34.081Z,20.58
2023-03-10T21:59:34.087Z,20.58
2023-03-10T22:00:34.104Z,20.58
2023-03-10T22:01:34.150Z,20.57
2023-03-10T22:02:34.088Z,20.57
2023-03-10T22:03:34.108Z,20.57
2023-03-10T22:04:34.771Z,20.57
2023-03-10T22:05:34.094Z,20.56
2023-03-10T22:06:34.095Z,20.57
2023-03-10T22:07:34.119Z,20.57
2023-03-10T22:08:34.128Z,20.57
2023-03-10T22:09:34.121Z,20.57
2023-03-10T22:10:34.105Z,20.57
2023-03-10T22:11:34.117Z,20.57
2023-03-10T22:12:34.106Z,20.56
2023-03-10T22:13:34.130Z,20.57
2023-03-10T22:14:34.125Z,20.57
2023-03-10T22:15:34.148Z,20.56
2023-03-10T22:16:34.224Z,20.56
2023-03-10T22:17:34.340Z,20.57
2023-03-10T22:18:34.359Z,20.58
2023-03-10T22:19:34.438Z,20.58
2023-03-10T22:20:34.514Z,20.58
2023-03-10T22:21:34.595Z,20.58
2023-03-10T22:22:34.649Z,20.58
2023-03-10T22:23:34.715Z,20.58
2023-03-10T22:24:34.785Z,20.58
2023-03-10T22:25:34.875Z,20.57
2023-03-10T22:26:34.924Z,20.59
2023-03-10T22:27:34.986Z,20.59
2023-03-10T22:28:35.055Z,20.59
2023-03-10T22:29:35.125Z,20.59
2023-03-10T22:30:35.188Z,20.59
2023-03-10T22:31:35.316Z,20.57
2023-03-10T22:32:35.405Z,20.56
2023-03-10T22:33:35.340Z,20.57
2023-03-10T22:34:35.389Z,20.56
2023-03-10T22:35:35.463Z,20.56
2023-03-10T22:36:35.479Z,20.55
2023-03-10T22:37:35.537Z,20.55
2023-03-10T22:38:35.594Z,20.57
2023-03-10T22:39:35.661Z,20.56
2023-03-10T22:40:35.730Z,20.56
2023-03-10T22:41:38.382Z,20.56
2023-03-10T22:42:35.785Z,20.56
2023-03-10T22:43:35.784Z,20.56
2023-03-10T22:44:35.795Z,20.58
2023-03-10T22:45:35.782Z,20.59
2023-03-10T22:46:35.809Z,20.58
2023-03-10T22:47:35.782Z,20.58
2023-03-10T22:48:35.782Z,20.57
2023-03-10T22:49:35.789Z,20.58
2023-03-10T22:50:35.788Z,20.58
2023-03-10T22:51:35.783Z,20.58
2023-03-10T22:52:35.788Z,20.57
2023-03-10T22:53:37.860Z,20.57
2023-03-10T22:54:35.798Z,20.57
2023-03-10T22:55:35.812Z,20.57
2023-03-10T22:56:35.854Z,20.58
2023-03-10T22:57:35.926Z,20.57
2023-03-10T22:58:35.999Z,20.56
2023-03-10T22:59:36.048Z,20.55
2023-03-10T23:00:36.108Z,20.56
2023-03-10T23:01:36.218Z,20.58
2023-03-10T23:02:36.262Z,20.58
2023-03-10T23:03:36.349Z,20.59
2023-03-10T23:04:36.681Z,20.59
2023-03-10T23:05:36.477Z,20.58
2023-03-10T23:06:36.545Z,20.58
2023-03-10T23:07:36.672Z,20.59
2023-03-10T23:08:36.664Z,20.59
2023-03-10T23:09:36.713Z,20.58
2023-03-10T23:10:36.770Z,20.58
2023-03-10T23:11:37.686Z,20.57
2023-03-10T23:12:36.832Z,20.58
2023-03-10T23:13:36.862Z,20.57
2023-03-10T23:14:36.893Z,20.57
2023-03-10T23:15:37.672Z,20.58
2023-03-10T23:16:37.126Z,20.58
2023-03-10T23:52:38.938Z,20.57
2023-03-10T23:53:39.406Z,20.57
2023-03-10T23:54:39.083Z,20.58
2023-03-10T23:55:39.737Z,20.57
2023-03-10T23:56:39.210Z,20.58
2023-03-10T23:57:39.273Z,20.58
2023-03-10T23:58:39.349Z,20.57
2023-03-10T23:59:39.407Z,20.56
